<?xml version="1.0" encoding="UTF-8" standalone="no" ?>
<gpx xmlns="http://www.topografix.com/GPX/1/1" xmlns:xsi="http://www.w3.org/2001/XMLSchema-instance" xsi:schemaLocation="http://www.topografix.com/GPX/1/1 http://www.topografix.com/GPX/1/1/gpx.xsd" version="1.1" creator="VisuGPX - https://www.visugpx.com">
  <metadata>
    <name>Balisage GR 108 - Secteur 4 - 2ème partie</name>
    <desc><![CDATA[Balisage 2ème session]]></desc>
  </metadata>
  <trk>
    <name><![CDATA[ACTIVE LOG 002]]></name>
    <trkseg>
      <trkpt lat="42.94939" lon="-0.44322">
        <ele>689.402588</ele>
        <time>2011-12-28T08:43:21Z</time>
      </trkpt>
      <trkpt lat="42.9494" lon="-0.44322">
        <ele>689.402588</ele>
        <time>2011-12-28T08:43:22Z</time>
      </trkpt>
      <trkpt lat="42.9494" lon="-0.44322">
        <ele>690.364014</ele>
        <time>2011-12-28T08:43:24Z</time>
      </trkpt>
      <trkpt lat="42.94938" lon="-0.44325">
        <ele>689.883301</ele>
        <time>2011-12-28T08:43:32Z</time>
      </trkpt>
      <trkpt lat="42.94919" lon="-0.44334">
        <ele>689.883301</ele>
        <time>2011-12-28T08:43:53Z</time>
      </trkpt>
      <trkpt lat="42.94906" lon="-0.44334">
        <ele>690.844482</ele>
        <time>2011-12-28T08:44:14Z</time>
      </trkpt>
      <trkpt lat="42.94907" lon="-0.44323">
        <ele>691.325195</ele>
        <time>2011-12-28T08:44:30Z</time>
      </trkpt>
      <trkpt lat="42.94907" lon="-0.44321">
        <ele>690.364014</ele>
        <time>2011-12-28T08:44:37Z</time>
      </trkpt>
      <trkpt lat="42.94889" lon="-0.44322">
        <ele>691.325195</ele>
        <time>2011-12-28T08:44:55Z</time>
      </trkpt>
      <trkpt lat="42.94882" lon="-0.44327">
        <ele>692.286621</ele>
        <time>2011-12-28T08:45:13Z</time>
      </trkpt>
      <trkpt lat="42.9488" lon="-0.44327">
        <ele>692.767334</ele>
        <time>2011-12-28T08:45:23Z</time>
      </trkpt>
      <trkpt lat="42.94876" lon="-0.4433">
        <ele>693.728516</ele>
        <time>2011-12-28T08:45:39Z</time>
      </trkpt>
      <trkpt lat="42.94875" lon="-0.4433">
        <ele>693.728516</ele>
        <time>2011-12-28T08:45:40Z</time>
      </trkpt>
      <trkpt lat="42.9487" lon="-0.44339">
        <ele>694.209229</ele>
        <time>2011-12-28T08:45:56Z</time>
      </trkpt>
      <trkpt lat="42.94861" lon="-0.44345">
        <ele>696.131836</ele>
        <time>2011-12-28T08:46:11Z</time>
      </trkpt>
      <trkpt lat="42.94853" lon="-0.44345">
        <ele>698.534912</ele>
        <time>2011-12-28T08:46:21Z</time>
      </trkpt>
      <trkpt lat="42.94841" lon="-0.44345">
        <ele>700.458008</ele>
        <time>2011-12-28T08:46:38Z</time>
      </trkpt>
      <trkpt lat="42.94829" lon="-0.44343">
        <ele>703.82251</ele>
        <time>2011-12-28T08:46:53Z</time>
      </trkpt>
      <trkpt lat="42.94828" lon="-0.44344">
        <ele>703.82251</ele>
        <time>2011-12-28T08:46:57Z</time>
      </trkpt>
      <trkpt lat="42.94829" lon="-0.44349">
        <ele>704.303223</ele>
        <time>2011-12-28T08:47:10Z</time>
      </trkpt>
      <trkpt lat="42.94829" lon="-0.44347">
        <ele>704.303223</ele>
        <time>2011-12-28T08:47:14Z</time>
      </trkpt>
      <trkpt lat="42.9483" lon="-0.44345">
        <ele>703.82251</ele>
        <time>2011-12-28T08:47:30Z</time>
      </trkpt>
      <trkpt lat="42.94835" lon="-0.44343">
        <ele>704.783691</ele>
        <time>2011-12-28T08:47:44Z</time>
      </trkpt>
      <trkpt lat="42.9483" lon="-0.44337">
        <ele>703.82251</ele>
        <time>2011-12-28T08:48:01Z</time>
      </trkpt>
      <trkpt lat="42.94828" lon="-0.4435">
        <ele>703.82251</ele>
        <time>2011-12-28T08:48:25Z</time>
      </trkpt>
      <trkpt lat="42.9483" lon="-0.44344">
        <ele>704.303223</ele>
        <time>2011-12-28T08:48:49Z</time>
      </trkpt>
      <trkpt lat="42.94834" lon="-0.4435">
        <ele>704.783691</ele>
        <time>2011-12-28T08:49:06Z</time>
      </trkpt>
      <trkpt lat="42.94844" lon="-0.44361">
        <ele>707.187012</ele>
        <time>2011-12-28T08:49:19Z</time>
      </trkpt>
      <trkpt lat="42.94846" lon="-0.44366">
        <ele>707.667725</ele>
        <time>2011-12-28T08:49:23Z</time>
      </trkpt>
      <trkpt lat="42.94853" lon="-0.44366">
        <ele>708.628906</ele>
        <time>2011-12-28T08:49:27Z</time>
      </trkpt>
      <trkpt lat="42.94857" lon="-0.4437">
        <ele>710.070801</ele>
        <time>2011-12-28T08:49:35Z</time>
      </trkpt>
      <trkpt lat="42.94871" lon="-0.44376">
        <ele>712.474121</ele>
        <time>2011-12-28T08:49:46Z</time>
      </trkpt>
      <trkpt lat="42.94882" lon="-0.4438">
        <ele>715.358154</ele>
        <time>2011-12-28T08:49:55Z</time>
      </trkpt>
      <trkpt lat="42.94887" lon="-0.4438">
        <ele>716.31958</ele>
        <time>2011-12-28T08:49:59Z</time>
      </trkpt>
      <trkpt lat="42.94894" lon="-0.44389">
        <ele>719.203613</ele>
        <time>2011-12-28T08:50:08Z</time>
      </trkpt>
      <trkpt lat="42.94906" lon="-0.44401">
        <ele>721.126221</ele>
        <time>2011-12-28T08:50:19Z</time>
      </trkpt>
      <trkpt lat="42.94919" lon="-0.44408">
        <ele>722.087402</ele>
        <time>2011-12-28T08:50:30Z</time>
      </trkpt>
      <trkpt lat="42.94931" lon="-0.4442">
        <ele>724.490723</ele>
        <time>2011-12-28T08:50:42Z</time>
      </trkpt>
      <trkpt lat="42.94944" lon="-0.44428">
        <ele>726.41333</ele>
        <time>2011-12-28T08:50:53Z</time>
      </trkpt>
      <trkpt lat="42.9495" lon="-0.44427">
        <ele>728.335938</ele>
        <time>2011-12-28T08:51:04Z</time>
      </trkpt>
      <trkpt lat="42.94958" lon="-0.44434">
        <ele>730.258545</ele>
        <time>2011-12-28T08:51:12Z</time>
      </trkpt>
      <trkpt lat="42.94958" lon="-0.44434">
        <ele>730.258545</ele>
        <time>2011-12-28T08:51:13Z</time>
      </trkpt>
      <trkpt lat="42.94966" lon="-0.44434">
        <ele>732.662109</ele>
        <time>2011-12-28T08:51:23Z</time>
      </trkpt>
      <trkpt lat="42.94967" lon="-0.44434">
        <ele>732.181396</ele>
        <time>2011-12-28T08:51:27Z</time>
      </trkpt>
      <trkpt lat="42.94954" lon="-0.44433">
        <ele>733.623291</ele>
        <time>2011-12-28T08:51:45Z</time>
      </trkpt>
      <trkpt lat="42.94955" lon="-0.4443">
        <ele>736.026611</ele>
        <time>2011-12-28T08:51:51Z</time>
      </trkpt>
      <trkpt lat="42.94953" lon="-0.44427">
        <ele>733.142578</ele>
        <time>2011-12-28T08:51:58Z</time>
      </trkpt>
      <trkpt lat="42.94952" lon="-0.44425">
        <ele>731.700439</ele>
        <time>2011-12-28T08:54:51Z</time>
      </trkpt>
      <trkpt lat="42.94954" lon="-0.44422">
        <ele>731.219971</ele>
        <time>2011-12-28T08:56:57Z</time>
      </trkpt>
      <trkpt lat="42.94956" lon="-0.44425">
        <ele>731.700439</ele>
        <time>2011-12-28T08:57:40Z</time>
      </trkpt>
      <trkpt lat="42.94952" lon="-0.44422">
        <ele>731.700439</ele>
        <time>2011-12-28T08:58:15Z</time>
      </trkpt>
      <trkpt lat="42.94954" lon="-0.44427">
        <ele>730.258545</ele>
        <time>2011-12-28T09:00:52Z</time>
      </trkpt>
      <trkpt lat="42.94955" lon="-0.44426">
        <ele>729.297119</ele>
        <time>2011-12-28T09:02:09Z</time>
      </trkpt>
      <trkpt lat="42.94955" lon="-0.44429">
        <ele>729.297119</ele>
        <time>2011-12-28T09:02:42Z</time>
      </trkpt>
      <trkpt lat="42.94955" lon="-0.44431">
        <ele>728.81665</ele>
        <time>2011-12-28T09:03:19Z</time>
      </trkpt>
      <trkpt lat="42.94946" lon="-0.44421">
        <ele>730.258545</ele>
        <time>2011-12-28T09:03:40Z</time>
      </trkpt>
      <trkpt lat="42.94951" lon="-0.4442">
        <ele>730.258545</ele>
        <time>2011-12-28T09:03:57Z</time>
      </trkpt>
      <trkpt lat="42.94968" lon="-0.44412">
        <ele>731.219971</ele>
        <time>2011-12-28T09:05:04Z</time>
      </trkpt>
      <trkpt lat="42.94967" lon="-0.44425">
        <ele>731.700439</ele>
        <time>2011-12-28T09:05:28Z</time>
      </trkpt>
      <trkpt lat="42.94944" lon="-0.44422">
        <ele>735.06543</ele>
        <time>2011-12-28T09:05:40Z</time>
      </trkpt>
      <trkpt lat="42.94933" lon="-0.44425">
        <ele>736.026611</ele>
        <time>2011-12-28T09:05:47Z</time>
      </trkpt>
      <trkpt lat="42.94919" lon="-0.44429">
        <ele>738.429932</ele>
        <time>2011-12-28T09:05:56Z</time>
      </trkpt>
      <trkpt lat="42.94908" lon="-0.44434">
        <ele>742.275146</ele>
        <time>2011-12-28T09:06:05Z</time>
      </trkpt>
      <trkpt lat="42.94907" lon="-0.44434">
        <ele>742.275146</ele>
        <time>2011-12-28T09:06:06Z</time>
      </trkpt>
      <trkpt lat="42.94898" lon="-0.44435">
        <ele>743.236328</ele>
        <time>2011-12-28T09:06:15Z</time>
      </trkpt>
      <trkpt lat="42.94891" lon="-0.44434">
        <ele>746.120361</ele>
        <time>2011-12-28T09:06:22Z</time>
      </trkpt>
      <trkpt lat="42.94892" lon="-0.44441">
        <ele>748.523682</ele>
        <time>2011-12-28T09:06:37Z</time>
      </trkpt>
      <trkpt lat="42.94902" lon="-0.44438">
        <ele>750.446533</ele>
        <time>2011-12-28T09:06:49Z</time>
      </trkpt>
      <trkpt lat="42.94913" lon="-0.44445">
        <ele>752.849609</ele>
        <time>2011-12-28T09:06:59Z</time>
      </trkpt>
      <trkpt lat="42.94916" lon="-0.44447">
        <ele>754.772217</ele>
        <time>2011-12-28T09:07:01Z</time>
      </trkpt>
      <trkpt lat="42.94928" lon="-0.44459">
        <ele>756.214111</ele>
        <time>2011-12-28T09:07:10Z</time>
      </trkpt>
      <trkpt lat="42.94935" lon="-0.44469">
        <ele>758.617432</ele>
        <time>2011-12-28T09:07:22Z</time>
      </trkpt>
      <trkpt lat="42.94926" lon="-0.44471">
        <ele>760.540039</ele>
        <time>2011-12-28T09:07:34Z</time>
      </trkpt>
      <trkpt lat="42.94922" lon="-0.44471">
        <ele>761.501465</ele>
        <time>2011-12-28T09:07:38Z</time>
      </trkpt>
      <trkpt lat="42.94905" lon="-0.44473">
        <ele>764.866211</ele>
        <time>2011-12-28T09:07:55Z</time>
      </trkpt>
      <trkpt lat="42.94893" lon="-0.44473">
        <ele>767.269531</ele>
        <time>2011-12-28T09:08:11Z</time>
      </trkpt>
      <trkpt lat="42.94878" lon="-0.4447">
        <ele>769.672852</ele>
        <time>2011-12-28T09:08:29Z</time>
      </trkpt>
      <trkpt lat="42.94869" lon="-0.44468">
        <ele>772.556641</ele>
        <time>2011-12-28T09:08:41Z</time>
      </trkpt>
      <trkpt lat="42.9486" lon="-0.44461">
        <ele>773.998535</ele>
        <time>2011-12-28T09:09:04Z</time>
      </trkpt>
      <trkpt lat="42.94859" lon="-0.44458">
        <ele>774.959961</ele>
        <time>2011-12-28T09:09:24Z</time>
      </trkpt>
      <trkpt lat="42.94864" lon="-0.4446">
        <ele>775.44043</ele>
        <time>2011-12-28T09:09:43Z</time>
      </trkpt>
      <trkpt lat="42.94855" lon="-0.44454">
        <ele>773.998535</ele>
        <time>2011-12-28T09:10:55Z</time>
      </trkpt>
      <trkpt lat="42.94868" lon="-0.44461">
        <ele>773.998535</ele>
        <time>2011-12-28T09:11:20Z</time>
      </trkpt>
      <trkpt lat="42.94863" lon="-0.44464">
        <ele>773.998535</ele>
        <time>2011-12-28T09:11:59Z</time>
      </trkpt>
      <trkpt lat="42.94858" lon="-0.44465">
        <ele>773.518066</ele>
        <time>2011-12-28T09:12:48Z</time>
      </trkpt>
      <trkpt lat="42.94869" lon="-0.4446">
        <ele>773.518066</ele>
        <time>2011-12-28T09:13:18Z</time>
      </trkpt>
      <trkpt lat="42.9487" lon="-0.44459">
        <ele>773.998535</ele>
        <time>2011-12-28T09:13:22Z</time>
      </trkpt>
      <trkpt lat="42.94854" lon="-0.44468">
        <ele>774.959961</ele>
        <time>2011-12-28T09:14:11Z</time>
      </trkpt>
      <trkpt lat="42.94864" lon="-0.44457">
        <ele>773.998535</ele>
        <time>2011-12-28T09:15:08Z</time>
      </trkpt>
      <trkpt lat="42.94861" lon="-0.44454">
        <ele>774.479248</ele>
        <time>2011-12-28T09:15:19Z</time>
      </trkpt>
      <trkpt lat="42.94859" lon="-0.44458">
        <ele>773.998535</ele>
        <time>2011-12-28T09:15:38Z</time>
      </trkpt>
      <trkpt lat="42.9486" lon="-0.4446">
        <ele>772.556641</ele>
        <time>2011-12-28T09:16:01Z</time>
      </trkpt>
      <trkpt lat="42.94848" lon="-0.44454">
        <ele>775.44043</ele>
        <time>2011-12-28T09:16:19Z</time>
      </trkpt>
      <trkpt lat="42.94841" lon="-0.44451">
        <ele>776.882568</ele>
        <time>2011-12-28T09:16:26Z</time>
      </trkpt>
      <trkpt lat="42.94836" lon="-0.44449">
        <ele>779.285645</ele>
        <time>2011-12-28T09:16:33Z</time>
      </trkpt>
      <trkpt lat="42.94832" lon="-0.4445">
        <ele>779.766357</ele>
        <time>2011-12-28T09:16:37Z</time>
      </trkpt>
      <trkpt lat="42.94813" lon="-0.44447">
        <ele>782.169922</ele>
        <time>2011-12-28T09:16:53Z</time>
      </trkpt>
      <trkpt lat="42.94793" lon="-0.4445">
        <ele>784.573242</ele>
        <time>2011-12-28T09:17:12Z</time>
      </trkpt>
      <trkpt lat="42.94782" lon="-0.44455">
        <ele>787.457031</ele>
        <time>2011-12-28T09:17:22Z</time>
      </trkpt>
      <trkpt lat="42.94772" lon="-0.44467">
        <ele>790.821533</ele>
        <time>2011-12-28T09:17:35Z</time>
      </trkpt>
      <trkpt lat="42.94769" lon="-0.44484">
        <ele>794.186279</ele>
        <time>2011-12-28T09:17:47Z</time>
      </trkpt>
      <trkpt lat="42.94768" lon="-0.44491">
        <ele>794.666748</ele>
        <time>2011-12-28T09:17:52Z</time>
      </trkpt>
      <trkpt lat="42.94768" lon="-0.44501">
        <ele>796.589844</ele>
        <time>2011-12-28T09:17:59Z</time>
      </trkpt>
      <trkpt lat="42.94773" lon="-0.44506">
        <ele>797.070312</ele>
        <time>2011-12-28T09:18:08Z</time>
      </trkpt>
      <trkpt lat="42.9478" lon="-0.44487">
        <ele>801.39624</ele>
        <time>2011-12-28T09:18:25Z</time>
      </trkpt>
      <trkpt lat="42.94788" lon="-0.44476">
        <ele>804.760742</ele>
        <time>2011-12-28T09:18:37Z</time>
      </trkpt>
      <trkpt lat="42.94794" lon="-0.44472">
        <ele>807.164062</ele>
        <time>2011-12-28T09:18:45Z</time>
      </trkpt>
      <trkpt lat="42.94807" lon="-0.44475">
        <ele>810.047852</ele>
        <time>2011-12-28T09:19:01Z</time>
      </trkpt>
      <trkpt lat="42.94807" lon="-0.44475">
        <ele>810.047852</ele>
        <time>2011-12-28T09:19:02Z</time>
      </trkpt>
      <trkpt lat="42.94813" lon="-0.44475">
        <ele>811.009277</ele>
        <time>2011-12-28T09:19:16Z</time>
      </trkpt>
      <trkpt lat="42.9482" lon="-0.44478">
        <ele>811.48999</ele>
        <time>2011-12-28T09:19:29Z</time>
      </trkpt>
      <trkpt lat="42.94826" lon="-0.44481">
        <ele>811.970703</ele>
        <time>2011-12-28T09:19:46Z</time>
      </trkpt>
      <trkpt lat="42.94826" lon="-0.44482">
        <ele>812.451416</ele>
        <time>2011-12-28T09:20:04Z</time>
      </trkpt>
      <trkpt lat="42.94826" lon="-0.4448">
        <ele>812.451416</ele>
        <time>2011-12-28T09:20:21Z</time>
      </trkpt>
      <trkpt lat="42.94826" lon="-0.44482">
        <ele>811.009277</ele>
        <time>2011-12-28T09:20:37Z</time>
      </trkpt>
      <trkpt lat="42.94826" lon="-0.44479">
        <ele>811.48999</ele>
        <time>2011-12-28T09:21:01Z</time>
      </trkpt>
      <trkpt lat="42.94826" lon="-0.44482">
        <ele>811.970703</ele>
        <time>2011-12-28T09:21:25Z</time>
      </trkpt>
      <trkpt lat="42.94825" lon="-0.44483">
        <ele>811.48999</ele>
        <time>2011-12-28T09:21:47Z</time>
      </trkpt>
      <trkpt lat="42.94827" lon="-0.44481">
        <ele>811.48999</ele>
        <time>2011-12-28T09:22:18Z</time>
      </trkpt>
      <trkpt lat="42.94827" lon="-0.44482">
        <ele>810.047852</ele>
        <time>2011-12-28T09:23:16Z</time>
      </trkpt>
      <trkpt lat="42.94827" lon="-0.4448">
        <ele>810.047852</ele>
        <time>2011-12-28T09:23:59Z</time>
      </trkpt>
      <trkpt lat="42.94828" lon="-0.4448">
        <ele>810.047852</ele>
        <time>2011-12-28T09:24:33Z</time>
      </trkpt>
      <trkpt lat="42.94828" lon="-0.44479">
        <ele>811.009277</ele>
        <time>2011-12-28T09:24:38Z</time>
      </trkpt>
      <trkpt lat="42.94831" lon="-0.44483">
        <ele>810.528564</ele>
        <time>2011-12-28T09:24:58Z</time>
      </trkpt>
      <trkpt lat="42.94832" lon="-0.44484">
        <ele>811.48999</ele>
        <time>2011-12-28T09:25:00Z</time>
      </trkpt>
      <trkpt lat="42.94832" lon="-0.44485">
        <ele>811.009277</ele>
        <time>2011-12-28T09:25:01Z</time>
      </trkpt>
      <trkpt lat="42.94843" lon="-0.44493">
        <ele>813.893311</ele>
        <time>2011-12-28T09:25:14Z</time>
      </trkpt>
      <trkpt lat="42.94843" lon="-0.44494">
        <ele>813.893311</ele>
        <time>2011-12-28T09:25:15Z</time>
      </trkpt>
      <trkpt lat="42.94849" lon="-0.44503">
        <ele>815.335449</ele>
        <time>2011-12-28T09:25:29Z</time>
      </trkpt>
      <trkpt lat="42.94847" lon="-0.44504">
        <ele>815.335449</ele>
        <time>2011-12-28T09:25:50Z</time>
      </trkpt>
      <trkpt lat="42.94846" lon="-0.44508">
        <ele>817.258057</ele>
        <time>2011-12-28T09:26:13Z</time>
      </trkpt>
      <trkpt lat="42.9483" lon="-0.44492">
        <ele>814.374023</ele>
        <time>2011-12-28T09:26:32Z</time>
      </trkpt>
      <trkpt lat="42.9481" lon="-0.44483">
        <ele>811.970703</ele>
        <time>2011-12-28T09:26:50Z</time>
      </trkpt>
      <trkpt lat="42.94799" lon="-0.44484">
        <ele>811.970703</ele>
        <time>2011-12-28T09:27:03Z</time>
      </trkpt>
      <trkpt lat="42.94798" lon="-0.44485">
        <ele>811.970703</ele>
        <time>2011-12-28T09:27:19Z</time>
      </trkpt>
      <trkpt lat="42.94802" lon="-0.44484">
        <ele>811.970703</ele>
        <time>2011-12-28T09:27:24Z</time>
      </trkpt>
      <trkpt lat="42.94815" lon="-0.44487">
        <ele>812.451416</ele>
        <time>2011-12-28T09:27:40Z</time>
      </trkpt>
      <trkpt lat="42.94821" lon="-0.44485">
        <ele>812.932129</ele>
        <time>2011-12-28T09:27:50Z</time>
      </trkpt>
      <trkpt lat="42.94817" lon="-0.44483">
        <ele>811.970703</ele>
        <time>2011-12-28T09:27:54Z</time>
      </trkpt>
      <trkpt lat="42.94813" lon="-0.44482">
        <ele>811.48999</ele>
        <time>2011-12-28T09:28:04Z</time>
      </trkpt>
      <trkpt lat="42.9483" lon="-0.44492">
        <ele>813.893311</ele>
        <time>2011-12-28T09:28:22Z</time>
      </trkpt>
      <trkpt lat="42.94834" lon="-0.44494">
        <ele>814.374023</ele>
        <time>2011-12-28T09:28:26Z</time>
      </trkpt>
      <trkpt lat="42.94845" lon="-0.44505">
        <ele>816.296631</ele>
        <time>2011-12-28T09:28:43Z</time>
      </trkpt>
      <trkpt lat="42.94848" lon="-0.44507">
        <ele>815.816162</ele>
        <time>2011-12-28T09:28:47Z</time>
      </trkpt>
      <trkpt lat="42.94848" lon="-0.44504">
        <ele>814.854736</ele>
        <time>2011-12-28T09:28:51Z</time>
      </trkpt>
      <trkpt lat="42.94847" lon="-0.44503">
        <ele>814.374023</ele>
        <time>2011-12-28T09:29:06Z</time>
      </trkpt>
      <trkpt lat="42.94848" lon="-0.44507">
        <ele>814.854736</ele>
        <time>2011-12-28T09:29:23Z</time>
      </trkpt>
      <trkpt lat="42.94844" lon="-0.44499">
        <ele>813.412842</ele>
        <time>2011-12-28T09:29:46Z</time>
      </trkpt>
      <trkpt lat="42.94841" lon="-0.44497">
        <ele>812.932129</ele>
        <time>2011-12-28T09:30:03Z</time>
      </trkpt>
      <trkpt lat="42.94841" lon="-0.44499">
        <ele>812.932129</ele>
        <time>2011-12-28T09:30:36Z</time>
      </trkpt>
      <trkpt lat="42.94846" lon="-0.44513">
        <ele>814.374023</ele>
        <time>2011-12-28T09:30:57Z</time>
      </trkpt>
      <trkpt lat="42.94847" lon="-0.44511">
        <ele>814.854736</ele>
        <time>2011-12-28T09:31:00Z</time>
      </trkpt>
      <trkpt lat="42.94842" lon="-0.44502">
        <ele>811.48999</ele>
        <time>2011-12-28T09:31:18Z</time>
      </trkpt>
      <trkpt lat="42.94845" lon="-0.44503">
        <ele>813.412842</ele>
        <time>2011-12-28T09:32:02Z</time>
      </trkpt>
      <trkpt lat="42.94844" lon="-0.44498">
        <ele>813.412842</ele>
        <time>2011-12-28T09:32:22Z</time>
      </trkpt>
      <trkpt lat="42.94841" lon="-0.44494">
        <ele>811.970703</ele>
        <time>2011-12-28T09:32:37Z</time>
      </trkpt>
      <trkpt lat="42.94842" lon="-0.44499">
        <ele>811.48999</ele>
        <time>2011-12-28T09:32:57Z</time>
      </trkpt>
      <trkpt lat="42.9484" lon="-0.44507">
        <ele>812.451416</ele>
        <time>2011-12-28T09:34:18Z</time>
      </trkpt>
      <trkpt lat="42.94842" lon="-0.44503">
        <ele>812.932129</ele>
        <time>2011-12-28T09:34:45Z</time>
      </trkpt>
      <trkpt lat="42.94847" lon="-0.44506">
        <ele>813.412842</ele>
        <time>2011-12-28T09:35:08Z</time>
      </trkpt>
      <trkpt lat="42.94847" lon="-0.44504">
        <ele>814.374023</ele>
        <time>2011-12-28T09:35:21Z</time>
      </trkpt>
      <trkpt lat="42.94842" lon="-0.44501">
        <ele>812.932129</ele>
        <time>2011-12-28T09:35:36Z</time>
      </trkpt>
      <trkpt lat="42.94843" lon="-0.44498">
        <ele>812.451416</ele>
        <time>2011-12-28T09:36:47Z</time>
      </trkpt>
      <trkpt lat="42.94846" lon="-0.44502">
        <ele>814.374023</ele>
        <time>2011-12-28T09:37:04Z</time>
      </trkpt>
      <trkpt lat="42.94846" lon="-0.44501">
        <ele>813.412842</ele>
        <time>2011-12-28T09:37:05Z</time>
      </trkpt>
      <trkpt lat="42.94843" lon="-0.44497">
        <ele>812.932129</ele>
        <time>2011-12-28T09:37:18Z</time>
      </trkpt>
      <trkpt lat="42.94843" lon="-0.44496">
        <ele>812.451416</ele>
        <time>2011-12-28T09:37:36Z</time>
      </trkpt>
      <trkpt lat="42.94843" lon="-0.44496">
        <ele>811.48999</ele>
        <time>2011-12-28T09:38:08Z</time>
      </trkpt>
      <trkpt lat="42.94842" lon="-0.44499">
        <ele>812.451416</ele>
        <time>2011-12-28T09:38:54Z</time>
      </trkpt>
      <trkpt lat="42.94836" lon="-0.44489">
        <ele>812.932129</ele>
        <time>2011-12-28T09:39:21Z</time>
      </trkpt>
      <trkpt lat="42.94844" lon="-0.44495">
        <ele>813.412842</ele>
        <time>2011-12-28T09:39:43Z</time>
      </trkpt>
      <trkpt lat="42.94845" lon="-0.44498">
        <ele>813.412842</ele>
        <time>2011-12-28T09:40:16Z</time>
      </trkpt>
      <trkpt lat="42.94848" lon="-0.44503">
        <ele>814.374023</ele>
        <time>2011-12-28T09:40:30Z</time>
      </trkpt>
      <trkpt lat="42.94849" lon="-0.44504">
        <ele>813.893311</ele>
        <time>2011-12-28T09:41:08Z</time>
      </trkpt>
      <trkpt lat="42.94855" lon="-0.44509">
        <ele>816.296631</ele>
        <time>2011-12-28T09:41:35Z</time>
      </trkpt>
      <trkpt lat="42.94856" lon="-0.44511">
        <ele>816.777344</ele>
        <time>2011-12-28T09:41:51Z</time>
      </trkpt>
      <trkpt lat="42.94855" lon="-0.44514">
        <ele>817.258057</ele>
        <time>2011-12-28T09:42:14Z</time>
      </trkpt>
      <trkpt lat="42.94851" lon="-0.44514">
        <ele>816.777344</ele>
        <time>2011-12-28T09:42:18Z</time>
      </trkpt>
      <trkpt lat="42.94837" lon="-0.44501">
        <ele>813.893311</ele>
        <time>2011-12-28T09:42:39Z</time>
      </trkpt>
      <trkpt lat="42.94835" lon="-0.445">
        <ele>813.412842</ele>
        <time>2011-12-28T09:43:11Z</time>
      </trkpt>
      <trkpt lat="42.94833" lon="-0.44498">
        <ele>813.412842</ele>
        <time>2011-12-28T09:43:17Z</time>
      </trkpt>
      <trkpt lat="42.94836" lon="-0.44502">
        <ele>812.451416</ele>
        <time>2011-12-28T09:43:42Z</time>
      </trkpt>
      <trkpt lat="42.94834" lon="-0.44503">
        <ele>812.932129</ele>
        <time>2011-12-28T09:44:31Z</time>
      </trkpt>
      <trkpt lat="42.94835" lon="-0.44506">
        <ele>812.932129</ele>
        <time>2011-12-28T09:45:48Z</time>
      </trkpt>
      <trkpt lat="42.94835" lon="-0.44503">
        <ele>812.932129</ele>
        <time>2011-12-28T09:46:08Z</time>
      </trkpt>
      <trkpt lat="42.94838" lon="-0.44495">
        <ele>811.970703</ele>
        <time>2011-12-28T09:46:20Z</time>
      </trkpt>
      <trkpt lat="42.94839" lon="-0.44498">
        <ele>812.451416</ele>
        <time>2011-12-28T09:46:28Z</time>
      </trkpt>
      <trkpt lat="42.94834" lon="-0.445">
        <ele>811.970703</ele>
        <time>2011-12-28T09:46:46Z</time>
      </trkpt>
      <trkpt lat="42.94839" lon="-0.44501">
        <ele>812.451416</ele>
        <time>2011-12-28T09:47:10Z</time>
      </trkpt>
      <trkpt lat="42.94836" lon="-0.44502">
        <ele>811.48999</ele>
        <time>2011-12-28T09:47:56Z</time>
      </trkpt>
      <trkpt lat="42.94836" lon="-0.44509">
        <ele>811.009277</ele>
        <time>2011-12-28T09:48:56Z</time>
      </trkpt>
      <trkpt lat="42.94835" lon="-0.44504">
        <ele>810.528564</ele>
        <time>2011-12-28T09:49:40Z</time>
      </trkpt>
      <trkpt lat="42.94835" lon="-0.44503">
        <ele>811.009277</ele>
        <time>2011-12-28T09:49:57Z</time>
      </trkpt>
      <trkpt lat="42.94834" lon="-0.445">
        <ele>810.047852</ele>
        <time>2011-12-28T09:51:24Z</time>
      </trkpt>
      <trkpt lat="42.94831" lon="-0.44503">
        <ele>810.047852</ele>
        <time>2011-12-28T09:52:08Z</time>
      </trkpt>
      <trkpt lat="42.94834" lon="-0.44498">
        <ele>810.528564</ele>
        <time>2011-12-28T09:53:32Z</time>
      </trkpt>
      <trkpt lat="42.94834" lon="-0.44499">
        <ele>811.009277</ele>
        <time>2011-12-28T09:54:09Z</time>
      </trkpt>
      <trkpt lat="42.94834" lon="-0.445">
        <ele>809.567383</ele>
        <time>2011-12-28T09:54:24Z</time>
      </trkpt>
      <trkpt lat="42.94834" lon="-0.445">
        <ele>810.528564</ele>
        <time>2011-12-28T09:54:43Z</time>
      </trkpt>
      <trkpt lat="42.94834" lon="-0.44498">
        <ele>810.528564</ele>
        <time>2011-12-28T09:54:45Z</time>
      </trkpt>
      <trkpt lat="42.94825" lon="-0.44491">
        <ele>809.08667</ele>
        <time>2011-12-28T09:54:56Z</time>
      </trkpt>
      <trkpt lat="42.94823" lon="-0.44488">
        <ele>809.567383</ele>
        <time>2011-12-28T09:55:00Z</time>
      </trkpt>
      <trkpt lat="42.94823" lon="-0.44486">
        <ele>808.125488</ele>
        <time>2011-12-28T09:55:11Z</time>
      </trkpt>
      <trkpt lat="42.94824" lon="-0.44487">
        <ele>808.605957</ele>
        <time>2011-12-28T09:55:15Z</time>
      </trkpt>
      <trkpt lat="42.94835" lon="-0.44501">
        <ele>809.567383</ele>
        <time>2011-12-28T09:55:30Z</time>
      </trkpt>
      <trkpt lat="42.94833" lon="-0.44501">
        <ele>808.605957</ele>
        <time>2011-12-28T09:55:59Z</time>
      </trkpt>
      <trkpt lat="42.94834" lon="-0.445">
        <ele>809.567383</ele>
        <time>2011-12-28T09:56:06Z</time>
      </trkpt>
      <trkpt lat="42.94823" lon="-0.44486">
        <ele>807.644775</ele>
        <time>2011-12-28T09:56:20Z</time>
      </trkpt>
      <trkpt lat="42.94822" lon="-0.44484">
        <ele>808.125488</ele>
        <time>2011-12-28T09:56:27Z</time>
      </trkpt>
      <trkpt lat="42.94813" lon="-0.44482">
        <ele>807.164062</ele>
        <time>2011-12-28T09:56:36Z</time>
      </trkpt>
      <trkpt lat="42.94798" lon="-0.44489">
        <ele>805.722168</ele>
        <time>2011-12-28T09:56:48Z</time>
      </trkpt>
      <trkpt lat="42.94782" lon="-0.44517">
        <ele>802.357422</ele>
        <time>2011-12-28T09:57:07Z</time>
      </trkpt>
      <trkpt lat="42.94779" lon="-0.44543">
        <ele>798.99292</ele>
        <time>2011-12-28T09:57:21Z</time>
      </trkpt>
      <trkpt lat="42.94774" lon="-0.44581">
        <ele>796.109131</ele>
        <time>2011-12-28T09:57:39Z</time>
      </trkpt>
      <trkpt lat="42.9477" lon="-0.44613">
        <ele>792.744385</ele>
        <time>2011-12-28T09:57:54Z</time>
      </trkpt>
      <trkpt lat="42.94765" lon="-0.44632">
        <ele>791.782959</ele>
        <time>2011-12-28T09:58:10Z</time>
      </trkpt>
      <trkpt lat="42.94764" lon="-0.44634">
        <ele>792.263672</ele>
        <time>2011-12-28T09:58:12Z</time>
      </trkpt>
      <trkpt lat="42.94762" lon="-0.44638">
        <ele>792.263672</ele>
        <time>2011-12-28T09:58:16Z</time>
      </trkpt>
      <trkpt lat="42.94765" lon="-0.44644">
        <ele>790.821533</ele>
        <time>2011-12-28T09:58:32Z</time>
      </trkpt>
      <trkpt lat="42.94768" lon="-0.44642">
        <ele>791.302246</ele>
        <time>2011-12-28T09:58:48Z</time>
      </trkpt>
      <trkpt lat="42.94764" lon="-0.44644">
        <ele>791.302246</ele>
        <time>2011-12-28T09:58:59Z</time>
      </trkpt>
      <trkpt lat="42.94765" lon="-0.44643">
        <ele>790.821533</ele>
        <time>2011-12-28T09:59:08Z</time>
      </trkpt>
      <trkpt lat="42.94764" lon="-0.44647">
        <ele>791.782959</ele>
        <time>2011-12-28T10:00:00Z</time>
      </trkpt>
      <trkpt lat="42.94772" lon="-0.44646">
        <ele>791.782959</ele>
        <time>2011-12-28T10:00:34Z</time>
      </trkpt>
      <trkpt lat="42.94771" lon="-0.44644">
        <ele>790.341064</ele>
        <time>2011-12-28T10:02:17Z</time>
      </trkpt>
      <trkpt lat="42.9476" lon="-0.44644">
        <ele>790.341064</ele>
        <time>2011-12-28T10:02:57Z</time>
      </trkpt>
      <trkpt lat="42.94762" lon="-0.44643">
        <ele>790.341064</ele>
        <time>2011-12-28T10:03:14Z</time>
      </trkpt>
      <trkpt lat="42.94759" lon="-0.44639">
        <ele>790.821533</ele>
        <time>2011-12-28T10:05:03Z</time>
      </trkpt>
      <trkpt lat="42.94763" lon="-0.44643">
        <ele>791.302246</ele>
        <time>2011-12-28T10:05:15Z</time>
      </trkpt>
      <trkpt lat="42.94765" lon="-0.44645">
        <ele>792.744385</ele>
        <time>2011-12-28T10:05:24Z</time>
      </trkpt>
      <trkpt lat="42.9476" lon="-0.44656">
        <ele>791.782959</ele>
        <time>2011-12-28T10:05:38Z</time>
      </trkpt>
      <trkpt lat="42.94747" lon="-0.4466">
        <ele>788.89917</ele>
        <time>2011-12-28T10:05:55Z</time>
      </trkpt>
      <trkpt lat="42.94745" lon="-0.44659">
        <ele>789.379639</ele>
        <time>2011-12-28T10:05:58Z</time>
      </trkpt>
      <trkpt lat="42.94743" lon="-0.44655">
        <ele>788.418457</ele>
        <time>2011-12-28T10:06:02Z</time>
      </trkpt>
      <trkpt lat="42.9474" lon="-0.44634">
        <ele>786.976318</ele>
        <time>2011-12-28T10:06:22Z</time>
      </trkpt>
      <trkpt lat="42.94737" lon="-0.44608">
        <ele>783.611816</ele>
        <time>2011-12-28T10:06:40Z</time>
      </trkpt>
      <trkpt lat="42.94728" lon="-0.44582">
        <ele>780.728027</ele>
        <time>2011-12-28T10:06:58Z</time>
      </trkpt>
      <trkpt lat="42.94714" lon="-0.44554">
        <ele>778.324463</ele>
        <time>2011-12-28T10:07:19Z</time>
      </trkpt>
      <trkpt lat="42.94693" lon="-0.44531">
        <ele>775.44043</ele>
        <time>2011-12-28T10:07:43Z</time>
      </trkpt>
      <trkpt lat="42.94681" lon="-0.44514">
        <ele>772.075928</ele>
        <time>2011-12-28T10:07:59Z</time>
      </trkpt>
      <trkpt lat="42.94668" lon="-0.44487">
        <ele>771.114746</ele>
        <time>2011-12-28T10:08:20Z</time>
      </trkpt>
      <trkpt lat="42.94657" lon="-0.44468">
        <ele>768.711426</ele>
        <time>2011-12-28T10:08:40Z</time>
      </trkpt>
      <trkpt lat="42.94647" lon="-0.44454">
        <ele>767.75</ele>
        <time>2011-12-28T10:09:15Z</time>
      </trkpt>
      <trkpt lat="42.94621" lon="-0.44445">
        <ele>765.346924</ele>
        <time>2011-12-28T10:09:38Z</time>
      </trkpt>
      <trkpt lat="42.94597" lon="-0.44435">
        <ele>762.462646</ele>
        <time>2011-12-28T10:10:00Z</time>
      </trkpt>
      <trkpt lat="42.94585" lon="-0.44429">
        <ele>761.982178</ele>
        <time>2011-12-28T10:10:19Z</time>
      </trkpt>
      <trkpt lat="42.94584" lon="-0.4443">
        <ele>760.540039</ele>
        <time>2011-12-28T10:10:22Z</time>
      </trkpt>
      <trkpt lat="42.94593" lon="-0.44428">
        <ele>758.136963</ele>
        <time>2011-12-28T10:14:14Z</time>
      </trkpt>
      <trkpt lat="42.94577" lon="-0.4442">
        <ele>757.175537</ele>
        <time>2011-12-28T10:14:46Z</time>
      </trkpt>
      <trkpt lat="42.94555" lon="-0.44406">
        <ele>755.25293</ele>
        <time>2011-12-28T10:15:06Z</time>
      </trkpt>
      <trkpt lat="42.94532" lon="-0.44393">
        <ele>753.811035</ele>
        <time>2011-12-28T10:15:26Z</time>
      </trkpt>
      <trkpt lat="42.9451" lon="-0.44387">
        <ele>750.927002</ele>
        <time>2011-12-28T10:15:43Z</time>
      </trkpt>
      <trkpt lat="42.94483" lon="-0.44386">
        <ele>748.523682</ele>
        <time>2011-12-28T10:16:04Z</time>
      </trkpt>
      <trkpt lat="42.94457" lon="-0.44382">
        <ele>745.639648</ele>
        <time>2011-12-28T10:16:24Z</time>
      </trkpt>
      <trkpt lat="42.9443" lon="-0.44379">
        <ele>742.755859</ele>
        <time>2011-12-28T10:16:45Z</time>
      </trkpt>
      <trkpt lat="42.9441" lon="-0.44386">
        <ele>739.391113</ele>
        <time>2011-12-28T10:17:01Z</time>
      </trkpt>
      <trkpt lat="42.94385" lon="-0.4439">
        <ele>738.429932</ele>
        <time>2011-12-28T10:17:21Z</time>
      </trkpt>
      <trkpt lat="42.94367" lon="-0.44386">
        <ele>735.06543</ele>
        <time>2011-12-28T10:17:36Z</time>
      </trkpt>
      <trkpt lat="42.94359" lon="-0.44385">
        <ele>734.104004</ele>
        <time>2011-12-28T10:17:42Z</time>
      </trkpt>
      <trkpt lat="42.94354" lon="-0.44386">
        <ele>733.623291</ele>
        <time>2011-12-28T10:17:47Z</time>
      </trkpt>
      <trkpt lat="42.94331" lon="-0.44383">
        <ele>732.181396</ele>
        <time>2011-12-28T10:18:05Z</time>
      </trkpt>
      <trkpt lat="42.94309" lon="-0.44383">
        <ele>730.739258</ele>
        <time>2011-12-28T10:18:23Z</time>
      </trkpt>
      <trkpt lat="42.94286" lon="-0.44381">
        <ele>727.855225</ele>
        <time>2011-12-28T10:18:42Z</time>
      </trkpt>
      <trkpt lat="42.94262" lon="-0.44382">
        <ele>724.971436</ele>
        <time>2011-12-28T10:19:02Z</time>
      </trkpt>
      <trkpt lat="42.94237" lon="-0.44383">
        <ele>723.048828</ele>
        <time>2011-12-28T10:19:23Z</time>
      </trkpt>
      <trkpt lat="42.94224" lon="-0.44385">
        <ele>721.126221</ele>
        <time>2011-12-28T10:19:36Z</time>
      </trkpt>
      <trkpt lat="42.94209" lon="-0.4439">
        <ele>720.164795</ele>
        <time>2011-12-28T10:19:54Z</time>
      </trkpt>
      <trkpt lat="42.94206" lon="-0.4439">
        <ele>720.164795</ele>
        <time>2011-12-28T10:19:58Z</time>
      </trkpt>
      <trkpt lat="42.94197" lon="-0.44393">
        <ele>719.684326</ele>
        <time>2011-12-28T10:20:16Z</time>
      </trkpt>
      <trkpt lat="42.94201" lon="-0.44373">
        <ele>719.203613</ele>
        <time>2011-12-28T10:20:32Z</time>
      </trkpt>
      <trkpt lat="42.94203" lon="-0.4437">
        <ele>719.203613</ele>
        <time>2011-12-28T10:20:36Z</time>
      </trkpt>
      <trkpt lat="42.94208" lon="-0.44354">
        <ele>719.203613</ele>
        <time>2011-12-28T10:20:49Z</time>
      </trkpt>
      <trkpt lat="42.94202" lon="-0.44363">
        <ele>718.7229</ele>
        <time>2011-12-28T10:21:01Z</time>
      </trkpt>
      <trkpt lat="42.94201" lon="-0.44365">
        <ele>719.203613</ele>
        <time>2011-12-28T10:21:05Z</time>
      </trkpt>
      <trkpt lat="42.94201" lon="-0.44362">
        <ele>719.203613</ele>
        <time>2011-12-28T10:21:21Z</time>
      </trkpt>
      <trkpt lat="42.94194" lon="-0.44352">
        <ele>719.684326</ele>
        <time>2011-12-28T10:21:51Z</time>
      </trkpt>
      <trkpt lat="42.94202" lon="-0.44352">
        <ele>719.684326</ele>
        <time>2011-12-28T10:21:58Z</time>
      </trkpt>
      <trkpt lat="42.94209" lon="-0.44348">
        <ele>718.7229</ele>
        <time>2011-12-28T10:22:10Z</time>
      </trkpt>
      <trkpt lat="42.94208" lon="-0.44368">
        <ele>721.126221</ele>
        <time>2011-12-28T10:24:09Z</time>
      </trkpt>
      <trkpt lat="42.94207" lon="-0.44375">
        <ele>721.606689</ele>
        <time>2011-12-28T10:24:18Z</time>
      </trkpt>
      <trkpt lat="42.94205" lon="-0.44376">
        <ele>721.126221</ele>
        <time>2011-12-28T10:24:20Z</time>
      </trkpt>
      <trkpt lat="42.942" lon="-0.44368">
        <ele>721.126221</ele>
        <time>2011-12-28T10:24:41Z</time>
      </trkpt>
      <trkpt lat="42.94205" lon="-0.44367">
        <ele>721.606689</ele>
        <time>2011-12-28T10:24:47Z</time>
      </trkpt>
      <trkpt lat="42.94211" lon="-0.44356">
        <ele>721.126221</ele>
        <time>2011-12-28T10:24:52Z</time>
      </trkpt>
      <trkpt lat="42.94222" lon="-0.44342">
        <ele>720.164795</ele>
        <time>2011-12-28T10:25:04Z</time>
      </trkpt>
      <trkpt lat="42.94211" lon="-0.44362">
        <ele>723.048828</ele>
        <time>2011-12-28T10:26:25Z</time>
      </trkpt>
      <trkpt lat="42.94208" lon="-0.44365">
        <ele>723.529541</ele>
        <time>2011-12-28T10:26:30Z</time>
      </trkpt>
      <trkpt lat="42.94198" lon="-0.44366">
        <ele>723.048828</ele>
        <time>2011-12-28T10:26:44Z</time>
      </trkpt>
      <trkpt lat="42.94208" lon="-0.4436">
        <ele>723.529541</ele>
        <time>2011-12-28T10:26:52Z</time>
      </trkpt>
      <trkpt lat="42.94218" lon="-0.44347">
        <ele>721.606689</ele>
        <time>2011-12-28T10:27:08Z</time>
      </trkpt>
      <trkpt lat="42.9421" lon="-0.44358">
        <ele>724.01001</ele>
        <time>2011-12-28T10:28:56Z</time>
      </trkpt>
      <trkpt lat="42.94206" lon="-0.44361">
        <ele>725.451904</ele>
        <time>2011-12-28T10:28:59Z</time>
      </trkpt>
      <trkpt lat="42.94208" lon="-0.44363">
        <ele>725.451904</ele>
        <time>2011-12-28T10:30:27Z</time>
      </trkpt>
      <trkpt lat="42.94203" lon="-0.44369">
        <ele>725.451904</ele>
        <time>2011-12-28T10:30:36Z</time>
      </trkpt>
      <trkpt lat="42.94196" lon="-0.44368">
        <ele>725.451904</ele>
        <time>2011-12-28T10:30:52Z</time>
      </trkpt>
      <trkpt lat="42.94198" lon="-0.44371">
        <ele>725.451904</ele>
        <time>2011-12-28T10:31:03Z</time>
      </trkpt>
      <trkpt lat="42.94201" lon="-0.44385">
        <ele>727.374756</ele>
        <time>2011-12-28T10:31:16Z</time>
      </trkpt>
      <trkpt lat="42.94206" lon="-0.44387">
        <ele>727.855225</ele>
        <time>2011-12-28T10:31:39Z</time>
      </trkpt>
      <trkpt lat="42.94202" lon="-0.44389">
        <ele>727.374756</ele>
        <time>2011-12-28T10:31:50Z</time>
      </trkpt>
      <trkpt lat="42.942" lon="-0.44394">
        <ele>728.81665</ele>
        <time>2011-12-28T10:32:07Z</time>
      </trkpt>
      <trkpt lat="42.94194" lon="-0.44393">
        <ele>729.777832</ele>
        <time>2011-12-28T10:32:27Z</time>
      </trkpt>
      <trkpt lat="42.94189" lon="-0.44393">
        <ele>730.739258</ele>
        <time>2011-12-28T10:32:39Z</time>
      </trkpt>
      <trkpt lat="42.94189" lon="-0.44392">
        <ele>730.739258</ele>
        <time>2011-12-28T10:32:42Z</time>
      </trkpt>
      <trkpt lat="42.94196" lon="-0.44385">
        <ele>730.258545</ele>
        <time>2011-12-28T10:32:52Z</time>
      </trkpt>
      <trkpt lat="42.94201" lon="-0.44382">
        <ele>729.297119</ele>
        <time>2011-12-28T10:32:58Z</time>
      </trkpt>
      <trkpt lat="42.94202" lon="-0.44376">
        <ele>728.335938</ele>
        <time>2011-12-28T10:33:02Z</time>
      </trkpt>
      <trkpt lat="42.94198" lon="-0.44356">
        <ele>727.374756</ele>
        <time>2011-12-28T10:33:21Z</time>
      </trkpt>
      <trkpt lat="42.94201" lon="-0.44363">
        <ele>727.374756</ele>
        <time>2011-12-28T10:33:31Z</time>
      </trkpt>
      <trkpt lat="42.94208" lon="-0.44381">
        <ele>729.297119</ele>
        <time>2011-12-28T10:33:43Z</time>
      </trkpt>
      <trkpt lat="42.94197" lon="-0.44393">
        <ele>730.739258</ele>
        <time>2011-12-28T10:33:53Z</time>
      </trkpt>
      <trkpt lat="42.94202" lon="-0.44366">
        <ele>732.181396</ele>
        <time>2011-12-28T10:37:53Z</time>
      </trkpt>
      <trkpt lat="42.94198" lon="-0.44352">
        <ele>730.739258</ele>
        <time>2011-12-28T10:38:12Z</time>
      </trkpt>
      <trkpt lat="42.94185" lon="-0.44367">
        <ele>731.700439</ele>
        <time>2011-12-28T10:38:52Z</time>
      </trkpt>
      <trkpt lat="42.94184" lon="-0.4437">
        <ele>732.181396</ele>
        <time>2011-12-28T10:39:19Z</time>
      </trkpt>
      <trkpt lat="42.94197" lon="-0.44367">
        <ele>732.181396</ele>
        <time>2011-12-28T10:40:01Z</time>
      </trkpt>
      <trkpt lat="42.94195" lon="-0.44345">
        <ele>733.142578</ele>
        <time>2011-12-28T10:40:50Z</time>
      </trkpt>
      <trkpt lat="42.94198" lon="-0.44367">
        <ele>736.026611</ele>
        <time>2011-12-28T10:45:04Z</time>
      </trkpt>
      <trkpt lat="42.94205" lon="-0.44382">
        <ele>735.06543</ele>
        <time>2011-12-28T10:57:57Z</time>
      </trkpt>
      <trkpt lat="42.94204" lon="-0.44396">
        <ele>736.507324</ele>
        <time>2011-12-28T10:58:14Z</time>
      </trkpt>
      <trkpt lat="42.94198" lon="-0.4439">
        <ele>736.507324</ele>
        <time>2011-12-28T10:58:32Z</time>
      </trkpt>
      <trkpt lat="42.94195" lon="-0.4439">
        <ele>736.026611</ele>
        <time>2011-12-28T10:58:57Z</time>
      </trkpt>
      <trkpt lat="42.94189" lon="-0.44386">
        <ele>737.949219</ele>
        <time>2011-12-28T10:59:06Z</time>
      </trkpt>
      <trkpt lat="42.94181" lon="-0.44391">
        <ele>738.429932</ele>
        <time>2011-12-28T10:59:22Z</time>
      </trkpt>
      <trkpt lat="42.94187" lon="-0.44384">
        <ele>739.391113</ele>
        <time>2011-12-28T10:59:53Z</time>
      </trkpt>
      <trkpt lat="42.94193" lon="-0.44401">
        <ele>738.429932</ele>
        <time>2011-12-28T11:00:38Z</time>
      </trkpt>
      <trkpt lat="42.94191" lon="-0.44398">
        <ele>739.391113</ele>
        <time>2011-12-28T11:01:20Z</time>
      </trkpt>
      <trkpt lat="42.94187" lon="-0.44375">
        <ele>739.391113</ele>
        <time>2011-12-28T11:01:48Z</time>
      </trkpt>
      <trkpt lat="42.94198" lon="-0.44394">
        <ele>740.352539</ele>
        <time>2011-12-28T11:03:07Z</time>
      </trkpt>
      <trkpt lat="42.94186" lon="-0.44388">
        <ele>738.910645</ele>
        <time>2011-12-28T11:05:24Z</time>
      </trkpt>
      <trkpt lat="42.94184" lon="-0.44386">
        <ele>738.429932</ele>
        <time>2011-12-28T11:05:42Z</time>
      </trkpt>
      <trkpt lat="42.94194" lon="-0.44397">
        <ele>739.391113</ele>
        <time>2011-12-28T11:07:00Z</time>
      </trkpt>
      <trkpt lat="42.9419" lon="-0.444">
        <ele>740.833008</ele>
        <time>2011-12-28T11:07:33Z</time>
      </trkpt>
      <trkpt lat="42.94186" lon="-0.44385">
        <ele>739.871826</ele>
        <time>2011-12-28T11:07:56Z</time>
      </trkpt>
      <trkpt lat="42.94181" lon="-0.4438">
        <ele>740.352539</ele>
        <time>2011-12-28T11:08:01Z</time>
      </trkpt>
      <trkpt lat="42.94174" lon="-0.44382">
        <ele>739.871826</ele>
        <time>2011-12-28T11:08:06Z</time>
      </trkpt>
      <trkpt lat="42.94165" lon="-0.44388">
        <ele>739.391113</ele>
        <time>2011-12-28T11:08:14Z</time>
      </trkpt>
      <trkpt lat="42.94147" lon="-0.44394">
        <ele>740.352539</ele>
        <time>2011-12-28T11:08:30Z</time>
      </trkpt>
      <trkpt lat="42.94145" lon="-0.44392">
        <ele>739.871826</ele>
        <time>2011-12-28T11:08:32Z</time>
      </trkpt>
      <trkpt lat="42.94141" lon="-0.4439">
        <ele>740.352539</ele>
        <time>2011-12-28T11:08:36Z</time>
      </trkpt>
      <trkpt lat="42.94133" lon="-0.44386">
        <ele>739.391113</ele>
        <time>2011-12-28T11:08:43Z</time>
      </trkpt>
      <trkpt lat="42.94129" lon="-0.44383">
        <ele>739.871826</ele>
        <time>2011-12-28T11:08:47Z</time>
      </trkpt>
      <trkpt lat="42.94109" lon="-0.44387">
        <ele>738.910645</ele>
        <time>2011-12-28T11:09:03Z</time>
      </trkpt>
      <trkpt lat="42.94094" lon="-0.44397">
        <ele>740.833008</ele>
        <time>2011-12-28T11:09:18Z</time>
      </trkpt>
      <trkpt lat="42.94074" lon="-0.44405">
        <ele>742.275146</ele>
        <time>2011-12-28T11:09:38Z</time>
      </trkpt>
      <trkpt lat="42.94061" lon="-0.44415">
        <ele>741.794434</ele>
        <time>2011-12-28T11:09:54Z</time>
      </trkpt>
      <trkpt lat="42.94048" lon="-0.44418">
        <ele>741.794434</ele>
        <time>2011-12-28T11:10:11Z</time>
      </trkpt>
      <trkpt lat="42.9404" lon="-0.44423">
        <ele>742.755859</ele>
        <time>2011-12-28T11:10:23Z</time>
      </trkpt>
      <trkpt lat="42.9404" lon="-0.44418">
        <ele>740.833008</ele>
        <time>2011-12-28T11:10:33Z</time>
      </trkpt>
      <trkpt lat="42.94038" lon="-0.44416">
        <ele>740.352539</ele>
        <time>2011-12-28T11:10:36Z</time>
      </trkpt>
      <trkpt lat="42.94022" lon="-0.44415">
        <ele>740.833008</ele>
        <time>2011-12-28T11:10:52Z</time>
      </trkpt>
      <trkpt lat="42.9401" lon="-0.4441">
        <ele>740.352539</ele>
        <time>2011-12-28T11:11:04Z</time>
      </trkpt>
      <trkpt lat="42.93995" lon="-0.44407">
        <ele>740.352539</ele>
        <time>2011-12-28T11:11:21Z</time>
      </trkpt>
      <trkpt lat="42.93991" lon="-0.44407">
        <ele>741.313721</ele>
        <time>2011-12-28T11:11:25Z</time>
      </trkpt>
      <trkpt lat="42.93986" lon="-0.44399">
        <ele>741.313721</ele>
        <time>2011-12-28T11:11:31Z</time>
      </trkpt>
      <trkpt lat="42.93976" lon="-0.44397">
        <ele>741.794434</ele>
        <time>2011-12-28T11:11:42Z</time>
      </trkpt>
      <trkpt lat="42.93959" lon="-0.4439">
        <ele>742.755859</ele>
        <time>2011-12-28T11:11:58Z</time>
      </trkpt>
      <trkpt lat="42.93944" lon="-0.44393">
        <ele>743.236328</ele>
        <time>2011-12-28T11:12:13Z</time>
      </trkpt>
      <trkpt lat="42.93935" lon="-0.44383">
        <ele>740.352539</ele>
        <time>2011-12-28T11:12:29Z</time>
      </trkpt>
      <trkpt lat="42.93934" lon="-0.44383">
        <ele>740.352539</ele>
        <time>2011-12-28T11:12:30Z</time>
      </trkpt>
      <trkpt lat="42.93931" lon="-0.44383">
        <ele>740.352539</ele>
        <time>2011-12-28T11:12:33Z</time>
      </trkpt>
      <trkpt lat="42.93929" lon="-0.44383">
        <ele>739.871826</ele>
        <time>2011-12-28T11:12:35Z</time>
      </trkpt>
      <trkpt lat="42.93926" lon="-0.44381">
        <ele>741.313721</ele>
        <time>2011-12-28T11:12:37Z</time>
      </trkpt>
      <trkpt lat="42.93913" lon="-0.44377">
        <ele>740.833008</ele>
        <time>2011-12-28T11:12:51Z</time>
      </trkpt>
      <trkpt lat="42.93912" lon="-0.44383">
        <ele>738.910645</ele>
        <time>2011-12-28T11:13:06Z</time>
      </trkpt>
      <trkpt lat="42.93896" lon="-0.44375">
        <ele>738.910645</ele>
        <time>2011-12-28T11:13:21Z</time>
      </trkpt>
      <trkpt lat="42.93887" lon="-0.44369">
        <ele>739.391113</ele>
        <time>2011-12-28T11:13:37Z</time>
      </trkpt>
      <trkpt lat="42.93887" lon="-0.44371">
        <ele>739.871826</ele>
        <time>2011-12-28T11:14:15Z</time>
      </trkpt>
      <trkpt lat="42.93889" lon="-0.44364">
        <ele>739.391113</ele>
        <time>2011-12-28T11:14:51Z</time>
      </trkpt>
      <trkpt lat="42.93889" lon="-0.44365">
        <ele>740.352539</ele>
        <time>2011-12-28T11:14:53Z</time>
      </trkpt>
      <trkpt lat="42.93888" lon="-0.44366">
        <ele>739.871826</ele>
        <time>2011-12-28T11:14:55Z</time>
      </trkpt>
      <trkpt lat="42.93885" lon="-0.44363">
        <ele>740.352539</ele>
        <time>2011-12-28T11:15:12Z</time>
      </trkpt>
      <trkpt lat="42.93885" lon="-0.44363">
        <ele>740.833008</ele>
        <time>2011-12-28T11:15:20Z</time>
      </trkpt>
      <trkpt lat="42.9389" lon="-0.44369">
        <ele>740.833008</ele>
        <time>2011-12-28T11:15:41Z</time>
      </trkpt>
      <trkpt lat="42.93887" lon="-0.4437">
        <ele>740.833008</ele>
        <time>2011-12-28T11:15:56Z</time>
      </trkpt>
      <trkpt lat="42.93903" lon="-0.44372">
        <ele>740.833008</ele>
        <time>2011-12-28T11:16:50Z</time>
      </trkpt>
      <trkpt lat="42.93891" lon="-0.44373">
        <ele>741.313721</ele>
        <time>2011-12-28T11:17:21Z</time>
      </trkpt>
      <trkpt lat="42.9388" lon="-0.44359">
        <ele>741.313721</ele>
        <time>2011-12-28T11:18:17Z</time>
      </trkpt>
      <trkpt lat="42.93895" lon="-0.44374">
        <ele>740.833008</ele>
        <time>2011-12-28T11:18:29Z</time>
      </trkpt>
      <trkpt lat="42.93883" lon="-0.44367">
        <ele>740.833008</ele>
        <time>2011-12-28T11:18:51Z</time>
      </trkpt>
      <trkpt lat="42.93873" lon="-0.44363">
        <ele>741.313721</ele>
        <time>2011-12-28T11:19:03Z</time>
      </trkpt>
      <trkpt lat="42.93871" lon="-0.44361">
        <ele>740.352539</ele>
        <time>2011-12-28T11:19:05Z</time>
      </trkpt>
      <trkpt lat="42.93857" lon="-0.4435">
        <ele>741.794434</ele>
        <time>2011-12-28T11:19:18Z</time>
      </trkpt>
      <trkpt lat="42.93839" lon="-0.44343">
        <ele>741.794434</ele>
        <time>2011-12-28T11:19:33Z</time>
      </trkpt>
      <trkpt lat="42.93827" lon="-0.44337">
        <ele>741.794434</ele>
        <time>2011-12-28T11:19:43Z</time>
      </trkpt>
      <trkpt lat="42.93812" lon="-0.4433">
        <ele>740.352539</ele>
        <time>2011-12-28T11:19:56Z</time>
      </trkpt>
      <trkpt lat="42.93809" lon="-0.44327">
        <ele>739.871826</ele>
        <time>2011-12-28T11:20:00Z</time>
      </trkpt>
      <trkpt lat="42.93798" lon="-0.4433">
        <ele>740.833008</ele>
        <time>2011-12-28T11:20:07Z</time>
      </trkpt>
      <trkpt lat="42.93785" lon="-0.44325">
        <ele>739.871826</ele>
        <time>2011-12-28T11:20:20Z</time>
      </trkpt>
      <trkpt lat="42.93777" lon="-0.44323">
        <ele>739.871826</ele>
        <time>2011-12-28T11:20:27Z</time>
      </trkpt>
      <trkpt lat="42.93774" lon="-0.44324">
        <ele>737.468506</ele>
        <time>2011-12-28T11:20:44Z</time>
      </trkpt>
      <trkpt lat="42.93786" lon="-0.44322">
        <ele>734.104004</ele>
        <time>2011-12-28T11:21:19Z</time>
      </trkpt>
      <trkpt lat="42.93786" lon="-0.44322">
        <ele>733.623291</ele>
        <time>2011-12-28T11:21:21Z</time>
      </trkpt>
      <trkpt lat="42.93796" lon="-0.44321">
        <ele>732.181396</ele>
        <time>2011-12-28T11:21:34Z</time>
      </trkpt>
      <trkpt lat="42.93799" lon="-0.44334">
        <ele>732.181396</ele>
        <time>2011-12-28T11:22:19Z</time>
      </trkpt>
      <trkpt lat="42.93791" lon="-0.44336">
        <ele>733.142578</ele>
        <time>2011-12-28T11:24:47Z</time>
      </trkpt>
      <trkpt lat="42.93779" lon="-0.44311">
        <ele>735.545898</ele>
        <time>2011-12-28T11:27:31Z</time>
      </trkpt>
      <trkpt lat="42.93768" lon="-0.44315">
        <ele>735.545898</ele>
        <time>2011-12-28T11:27:41Z</time>
      </trkpt>
      <trkpt lat="42.93761" lon="-0.44324">
        <ele>736.507324</ele>
        <time>2011-12-28T11:28:01Z</time>
      </trkpt>
      <trkpt lat="42.93751" lon="-0.4433">
        <ele>736.507324</ele>
        <time>2011-12-28T11:28:11Z</time>
      </trkpt>
      <trkpt lat="42.93745" lon="-0.44332">
        <ele>737.949219</ele>
        <time>2011-12-28T11:28:22Z</time>
      </trkpt>
      <trkpt lat="42.93728" lon="-0.44319">
        <ele>738.429932</ele>
        <time>2011-12-28T11:28:49Z</time>
      </trkpt>
      <trkpt lat="42.93731" lon="-0.44337">
        <ele>741.794434</ele>
        <time>2011-12-28T11:31:06Z</time>
      </trkpt>
      <trkpt lat="42.93725" lon="-0.44354">
        <ele>740.833008</ele>
        <time>2011-12-28T11:31:25Z</time>
      </trkpt>
      <trkpt lat="42.93726" lon="-0.44342">
        <ele>743.717041</ele>
        <time>2011-12-28T11:32:41Z</time>
      </trkpt>
      <trkpt lat="42.93733" lon="-0.44333">
        <ele>746.601074</ele>
        <time>2011-12-28T11:34:08Z</time>
      </trkpt>
      <trkpt lat="42.93743" lon="-0.44326">
        <ele>747.562256</ele>
        <time>2011-12-28T11:35:37Z</time>
      </trkpt>
      <trkpt lat="42.93747" lon="-0.44323">
        <ele>747.081543</ele>
        <time>2011-12-28T11:35:48Z</time>
      </trkpt>
      <trkpt lat="42.93735" lon="-0.44323">
        <ele>747.562256</ele>
        <time>2011-12-28T11:36:03Z</time>
      </trkpt>
      <trkpt lat="42.9373" lon="-0.44328">
        <ele>748.043213</ele>
        <time>2011-12-28T11:36:26Z</time>
      </trkpt>
      <trkpt lat="42.9373" lon="-0.44332">
        <ele>749.96582</ele>
        <time>2011-12-28T11:37:45Z</time>
      </trkpt>
      <trkpt lat="42.93732" lon="-0.44323">
        <ele>749.96582</ele>
        <time>2011-12-28T11:38:05Z</time>
      </trkpt>
      <trkpt lat="42.93738" lon="-0.44331">
        <ele>749.96582</ele>
        <time>2011-12-28T11:38:24Z</time>
      </trkpt>
      <trkpt lat="42.93732" lon="-0.44331">
        <ele>751.888428</ele>
        <time>2011-12-28T11:39:27Z</time>
      </trkpt>
      <trkpt lat="42.93732" lon="-0.44336">
        <ele>750.927002</ele>
        <time>2011-12-28T11:39:52Z</time>
      </trkpt>
      <trkpt lat="42.93725" lon="-0.44326">
        <ele>751.888428</ele>
        <time>2011-12-28T11:40:37Z</time>
      </trkpt>
      <trkpt lat="42.93722" lon="-0.44328">
        <ele>752.368896</ele>
        <time>2011-12-28T11:40:58Z</time>
      </trkpt>
      <trkpt lat="42.93732" lon="-0.44364">
        <ele>755.25293</ele>
        <time>2011-12-28T11:41:55Z</time>
      </trkpt>
      <trkpt lat="42.93762" lon="-0.44305">
        <ele>757.65625</ele>
        <time>2011-12-28T11:42:50Z</time>
      </trkpt>
      <trkpt lat="42.93751" lon="-0.44314">
        <ele>757.65625</ele>
        <time>2011-12-28T11:43:03Z</time>
      </trkpt>
      <trkpt lat="42.93741" lon="-0.44326">
        <ele>758.136963</ele>
        <time>2011-12-28T11:43:16Z</time>
      </trkpt>
      <trkpt lat="42.93718" lon="-0.44332">
        <ele>758.617432</ele>
        <time>2011-12-28T11:43:30Z</time>
      </trkpt>
      <trkpt lat="42.93697" lon="-0.44335">
        <ele>760.059326</ele>
        <time>2011-12-28T11:43:43Z</time>
      </trkpt>
      <trkpt lat="42.93674" lon="-0.44348">
        <ele>762.462646</ele>
        <time>2011-12-28T11:44:04Z</time>
      </trkpt>
      <trkpt lat="42.93663" lon="-0.44364">
        <ele>763.424072</ele>
        <time>2011-12-28T11:44:20Z</time>
      </trkpt>
      <trkpt lat="42.93662" lon="-0.44367">
        <ele>763.424072</ele>
        <time>2011-12-28T11:44:47Z</time>
      </trkpt>
      <trkpt lat="42.93664" lon="-0.44365">
        <ele>762.462646</ele>
        <time>2011-12-28T11:45:23Z</time>
      </trkpt>
      <trkpt lat="42.93666" lon="-0.44367">
        <ele>762.943359</ele>
        <time>2011-12-28T11:46:18Z</time>
      </trkpt>
      <trkpt lat="42.93668" lon="-0.44367">
        <ele>761.020752</ele>
        <time>2011-12-28T11:47:16Z</time>
      </trkpt>
      <trkpt lat="42.93669" lon="-0.44366">
        <ele>760.059326</ele>
        <time>2011-12-28T11:48:28Z</time>
      </trkpt>
      <trkpt lat="42.93666" lon="-0.44371">
        <ele>759.578857</ele>
        <time>2011-12-28T11:48:43Z</time>
      </trkpt>
      <trkpt lat="42.93648" lon="-0.44369">
        <ele>758.136963</ele>
        <time>2011-12-28T11:51:01Z</time>
      </trkpt>
      <trkpt lat="42.93642" lon="-0.4437">
        <ele>757.65625</ele>
        <time>2011-12-28T11:51:06Z</time>
      </trkpt>
      <trkpt lat="42.93629" lon="-0.44381">
        <ele>757.65625</ele>
        <time>2011-12-28T11:51:23Z</time>
      </trkpt>
      <trkpt lat="42.93619" lon="-0.44395">
        <ele>757.175537</ele>
        <time>2011-12-28T11:51:38Z</time>
      </trkpt>
      <trkpt lat="42.93606" lon="-0.44394">
        <ele>756.694824</ele>
        <time>2011-12-28T11:51:57Z</time>
      </trkpt>
      <trkpt lat="42.93606" lon="-0.44394">
        <ele>756.694824</ele>
        <time>2011-12-28T11:52:00Z</time>
      </trkpt>
    </trkseg>
  </trk>
</gpx>